sensor_id;sensor_type;location;lat;lon;timestamp;pressure;altitude;pressure_sealevel;temperature;humidity
63115;BME280;49208;50.874;6.466;2022-10-31T06:02:29;100858.69;;;12.28;100.00
63115;BME280;49208;50.874;6.466;2022-10-31T06:04:59;100864.91;;;12.29;100.00
63115;BME280;49208;50.874;6.466;2022-10-31T06:07:25;100856.97;;;12.27;100.00
63115;BME280;49208;50.874;6.466;2022-10-31T06:09:50;100861.44;;;12.27;100.00
63115;BME280;49208;50.874;6.466;2022-10-31T06:12:15;100857.09;;;12.24;100.00
63115;BME280;49208;50.874;6.466;2022-10-31T06:14:41;100846.56;;;12.20;100.00
63115;BME280;49208;50.874;6.466;2022-10-31T06:17:06;100854.78;;;12.13;100.00
63115;BME280;49208;50.874;6.466;2022-10-31T06:19:31;100836.38;;;12.06;100.00
63115;BME280;49208;50.874;6.466;2022-10-31T06:21:57;100847.31;;;11.98;100.00
63115;BME280;49208;50.874;6.466;2022-10-31T06:24:22;100846.59;;;11.93;100.00
63115;BME280;49208;50.874;6.466;2022-10-31T06:26:47;100845.84;;;11.89;100.00
63115;BME280;49208;50.874;6.466;2022-10-31T06:29:13;100845.09;;;11.84;100.00
63115;BME280;49208;50.874;6.466;2022-10-31T06:31:38;100839.00;;;11.81;100.00
63115;BME280;49208;50.874;6.466;2022-10-31T06:34:03;100848.88;;;11.79;100.00
63115;BME280;49208;50.874;6.466;2022-10-31T06:36:29;100848.09;;;11.75;100.00
63115;BME280;49208;50.874;6.466;2022-10-31T06:38:54;100843.66;;;11.74;100.00
63115;BME280;49208;50.874;6.466;2022-10-31T06:41:19;100842.78;;;11.73;100.00
63115;BME280;49208;50.874;6.466;2022-10-31T06:43:48;100857.00;;;11.74;100.00
63115;BME280;49208;50.874;6.466;2022-10-31T06:46:13;100858.78;;;11.73;100.00
63115;BME280;49208;50.874;6.466;2022-10-31T06:48:40;100851.63;;;11.76;100.00
63115;BME280;49208;50.874;6.466;2022-10-31T06:51:06;100846.25;;;11.77;100.00
63115;BME280;49208;50.874;6.466;2022-10-31T06:53:32;100845.25;;;11.80;100.00
63115;BME280;49208;50.874;6.466;2022-10-31T06:55:57;100852.22;;;11.84;100.00
63115;BME280;49208;50.874;6.466;2022-10-31T06:58:22;100853.88;;;11.88;100.00
63115;BME280;49208;50.874;6.466;2022-10-31T07:00:48;100847.53;;;11.92;100.00
63115;BME280;49208;50.874;6.466;2022-10-31T07:03:14;100850.09;;;11.95;100.00
63115;BME280;49208;50.874;6.466;2022-10-31T07:05:40;100854.38;;;11.99;100.00
63115;BME280;49208;50.874;6.466;2022-10-31T07:08:07;100861.34;;;12.03;100.00
63115;BME280;49208;50.874;6.466;2022-10-31T07:10:35;100864.81;;;12.07;100.00
63115;BME280;49208;50.874;6.466;2022-10-31T07:13:05;100870.88;;;12.12;100.00
63115;BME280;49208;50.874;6.466;2022-10-31T07:15:34;100867.16;;;12.16;100.00
63115;BME280;49208;50.874;6.466;2022-10-31T07:18:00;100871.38;;;12.22;100.00
63115;BME280;49208;50.874;6.466;2022-10-31T07:20:30;100862.25;;;12.29;100.00
63115;BME280;49208;50.874;6.466;2022-10-31T07:22:56;100866.47;;;12.34;100.00
63115;BME280;49208;50.874;6.466;2022-10-31T07:25:22;100866.22;;;12.42;100.00
63115;BME280;49208;50.874;6.466;2022-10-31T07:27:48;100865.13;;;12.48;100.00
63115;BME280;49208;50.874;6.466;2022-10-31T07:30:14;100866.63;;;12.55;100.00
63115;BME280;49208;50.874;6.466;2022-10-31T07:32:41;100863.72;;;12.61;100.00
63115;BME280;49208;50.874;6.466;2022-10-31T07:35:11;100864.25;;;12.71;100.00
63115;BME280;49208;50.874;6.466;2022-10-31T07:37:37;100861.34;;;12.77;100.00
63115;BME280;49208;50.874;6.466;2022-10-31T07:40:05;100873.53;;;12.84;100.00
63115;BME280;49208;50.874;6.466;2022-10-31T07:42:38;100872.38;;;12.91;100.00
63115;BME280;49208;50.874;6.466;2022-10-31T07:45:05;100868.66;;;12.96;100.00
63115;BME280;49208;50.874;6.466;2022-10-31T07:47:41;100868.44;;;13.02;100.00
63115;BME280;49208;50.874;6.466;2022-10-31T07:50:08;100869.09;;;13.07;100.00
63115;BME280;49208;50.874;6.466;2022-10-31T07:52:34;100866.19;;;13.13;100.00
63115;BME280;49208;50.874;6.466;2022-10-31T07:55:00;100870.50;;;13.17;99.87
63115;BME280;49208;50.874;6.466;2022-10-31T07:57:25;100866.91;;;13.18;100.00
63115;BME280;49208;50.874;6.466;2022-10-31T07:59:50;100865.84;;;13.22;100.00
63115;BME280;49208;50.874;6.466;2022-10-31T08:02:16;100863.03;;;13.25;98.68
63115;BME280;49208;50.874;6.466;2022-10-31T08:04:41;100865.75;;;13.24;98.59
63115;BME280;49208;50.874;6.466;2022-10-31T08:07:06;100872.81;;;13.26;98.87
63115;BME280;49208;50.874;6.466;2022-10-31T08:09:32;100872.72;;;13.29;99.11
63115;BME280;49208;50.874;6.466;2022-10-31T08:11:57;100877.00;;;13.33;98.58
63115;BME280;49208;50.874;6.466;2022-10-31T08:14:22;100869.78;;;13.36;99.20
63115;BME280;49208;50.874;6.466;2022-10-31T08:16:48;100872.28;;;13.40;99.20
63115;BME280;49208;50.874;6.466;2022-10-31T08:19:13;100871.16;;;13.46;98.82
63115;BME280;49208;50.874;6.466;2022-10-31T08:21:39;100862.06;;;13.50;98.26
63115;BME280;49208;50.874;6.466;2022-10-31T08:24:05;100868.13;;;13.55;98.36
63115;BME280;49208;50.874;6.466;2022-10-31T08:26:30;100865.31;;;13.58;97.79
63115;BME280;49208;50.874;6.466;2022-10-31T08:28:56;100858.84;;;13.64;97.65
63115;BME280;49208;50.874;6.466;2022-10-31T08:31:21;100866.63;;;13.70;96.91
63115;BME280;49208;50.874;6.466;2022-10-31T08:33:48;100854.72;;;13.77;96.78
63115;BME280;49208;50.874;6.466;2022-10-31T08:36:13;100854.66;;;13.79;94.83
63115;BME280;49208;50.874;6.466;2022-10-31T08:38:39;100852.84;;;13.79;94.21
63115;BME280;49208;50.874;6.466;2022-10-31T08:41:04;100853.59;;;13.83;94.12
63115;BME280;49208;50.874;6.466;2022-10-31T08:43:30;100848.88;;;13.88;94.35
63115;BME280;49208;50.874;6.466;2022-10-31T08:45:55;100847.72;;;13.95;94.51
63115;BME280;49208;50.874;6.466;2022-10-31T08:48:20;100844.63;;;14.04;93.88
63115;BME280;49208;50.874;6.466;2022-10-31T08:50:46;100843.16;;;14.18;93.97
63115;BME280;49208;50.874;6.466;2022-10-31T08:53:15;100847.97;;;14.30;92.93
63115;BME280;49208;50.874;6.466;2022-10-31T08:55:41;100833.81;;;14.47;92.96
63115;BME280;49208;50.874;6.466;2022-10-31T08:58:11;100823.28;;;14.63;92.71
63115;BME280;49208;50.874;6.466;2022-10-31T09:00:37;100823.59;;;14.75;91.19
63115;BME280;49208;50.874;6.466;2022-10-31T09:03:08;100814.09;;;14.87;90.59
63115;BME280;49208;50.874;6.466;2022-10-31T09:05:34;100809.31;;;14.94;89.43
63115;BME280;49208;50.874;6.466;2022-10-31T09:08:02;100809.81;;;15.02;89.54
63115;BME280;49208;50.874;6.466;2022-10-31T09:10:29;100803.72;;;15.18;89.93
63115;BME280;49208;50.874;6.466;2022-10-31T09:15:22;100800.69;;;15.43;89.08
63115;BME280;49208;50.874;6.466;2022-10-31T09:17:48;100796.72;;;15.50;87.27
63115;BME280;49208;50.874;6.466;2022-10-31T09:20:13;100786.72;;;15.53;86.96
63115;BME280;49208;50.874;6.466;2022-10-31T09:22:38;100792.94;;;15.54;86.64
63115;BME280;49208;50.874;6.466;2022-10-31T09:25:04;100793.03;;;15.52;86.51
63115;BME280;49208;50.874;6.466;2022-10-31T09:27:29;100784.34;;;15.47;86.62
63115;BME280;49208;50.874;6.466;2022-10-31T09:29:54;100775.38;;;15.48;87.44
63115;BME280;49208;50.874;6.466;2022-10-31T09:32:20;100776.94;;;15.52;87.68
63115;BME280;49208;50.874;6.466;2022-10-31T09:34:45;100774.47;;;15.48;87.34
63115;BME280;49208;50.874;6.466;2022-10-31T09:37:11;100762.44;;;15.56;86.97
63115;BME280;49208;50.874;6.466;2022-10-31T09:39:36;100754.13;;;15.61;87.39
63115;BME280;49208;50.874;6.466;2022-10-31T09:50:29;100739.03;;;16.11;83.18
63115;BME280;49208;50.874;6.466;2022-10-31T09:53:03;100737.84;;;16.16;83.18
63115;BME280;49208;50.874;6.466;2022-10-31T09:55:41;100736.16;;;16.14;83.10
63115;BME280;49208;50.874;6.466;2022-10-31T09:58:15;100732.09;;;16.23;82.35
63115;BME280;49208;50.874;6.466;2022-10-31T10:00:43;100730.03;;;16.28;81.55
63115;BME280;49208;50.874;6.466;2022-10-31T10:03:42;100717.88;;;16.54;84.07
63115;BME280;49208;50.874;6.466;2022-10-31T10:06:17;100711.88;;;16.65;81.08
63115;BME280;49208;50.874;6.466;2022-10-31T10:08:44;100709.44;;;16.76;79.44
63115;BME280;49208;50.874;6.466;2022-10-31T10:14:24;100700.19;;;16.98;79.04
63115;BME280;49208;50.874;6.466;2022-10-31T10:25:24;100701.50;;;17.21;77.47
63115;BME280;49208;50.874;6.466;2022-10-31T10:28:04;100709.94;;;17.45;76.26
63115;BME280;49208;50.874;6.466;2022-10-31T10:30:42;100710.81;;;17.60;77.09
63115;BME280;49208;50.874;6.466;2022-10-31T10:33:15;100711.34;;;17.81;75.84
63115;BME280;49208;50.874;6.466;2022-10-31T10:35:53;100711.63;;;17.76;73.18
63115;BME280;49208;50.874;6.466;2022-10-31T10:40:49;100712.94;;;17.85;73.71
63115;BME280;49208;50.874;6.466;2022-10-31T10:43:32;100711.88;;;17.87;74.23
63115;BME280;49208;50.874;6.466;2022-10-31T10:57:28;100716.88;;;17.63;75.58
63115;BME280;49208;50.874;6.466;2022-10-31T10:59:55;100716.03;;;17.63;74.76
63115;BME280;49208;50.874;6.466;2022-10-31T11:02:25;100709.03;;;17.60;74.64
63115;BME280;49208;50.874;6.466;2022-10-31T11:04:57;100702.34;;;17.51;75.35
63115;BME280;49208;50.874;6.466;2022-10-31T11:07:23;100694.66;;;17.45;75.17
63115;BME280;49208;50.874;6.466;2022-10-31T11:09:48;100683.00;;;17.45;76.13
63115;BME280;49208;50.874;6.466;2022-10-31T11:12:32;100679.06;;;17.36;76.41
63115;BME280;49208;50.874;6.466;2022-10-31T11:15:00;100674.53;;;17.36;77.18
63115;BME280;49208;50.874;6.466;2022-10-31T11:17:34;100669.84;;;17.40;76.93
63115;BME280;49208;50.874;6.466;2022-10-31T11:22:26;100659.66;;;17.31;76.46
63115;BME280;49208;50.874;6.466;2022-10-31T11:24:51;100654.88;;;17.20;76.92
63115;BME280;49208;50.874;6.466;2022-10-31T11:27:22;100651.75;;;17.28;77.08
63115;BME280;49208;50.874;6.466;2022-10-31T11:29:49;100643.31;;;17.34;76.80
63115;BME280;49208;50.874;6.466;2022-10-31T11:32:19;100637.56;;;17.40;76.83
63115;BME280;49208;50.874;6.466;2022-10-31T11:34:46;100632.66;;;17.47;76.10
63115;BME280;49208;50.874;6.466;2022-10-31T11:37:23;100630.44;;;17.53;76.21
63115;BME280;49208;50.874;6.466;2022-10-31T11:39:53;100618.72;;;17.54;75.90
63115;BME280;49208;50.874;6.466;2022-10-31T11:42:24;100613.13;;;17.57;76.25
63115;BME280;49208;50.874;6.466;2022-10-31T11:44:51;100597.78;;;17.45;75.45
63115;BME280;49208;50.874;6.466;2022-10-31T11:47:18;100603.34;;;17.42;77.47
63115;BME280;49208;50.874;6.466;2022-10-31T11:49:47;100594.03;;;17.48;76.83
63115;BME280;49208;50.874;6.466;2022-10-31T11:57:55;100586.41;;;17.26;76.71
63115;BME280;49208;50.874;6.466;2022-10-31T12:00:29;100588.81;;;17.30;76.55
63115;BME280;49208;50.874;6.466;2022-10-31T12:03:10;100592.00;;;17.37;76.11
63115;BME280;49208;50.874;6.466;2022-10-31T12:05:37;100593.94;;;17.35;75.37
63115;BME280;49208;50.874;6.466;2022-10-31T12:08:04;100575.56;;;17.27;74.76
63115;BME280;49208;50.874;6.466;2022-10-31T12:11:30;100557.88;;;17.23;75.77
63115;BME280;49208;50.874;6.466;2022-10-31T12:13:37;100570.84;;;17.16;76.13
63115;BME280;49208;50.874;6.466;2022-10-31T12:19:30;100546.78;;;16.99;76.84
63115;BME280;49208;50.874;6.466;2022-10-31T12:25:09;100541.13;;;16.89;76.43
63115;BME280;49208;50.874;6.466;2022-10-31T12:27:54;100529.66;;;16.86;77.61
63115;BME280;49208;50.874;6.466;2022-10-31T12:30:28;100522.03;;;16.78;76.98
63115;BME280;49208;50.874;6.466;2022-10-31T12:35:51;100497.16;;;16.74;77.77
63115;BME280;49208;50.874;6.466;2022-10-31T12:38:42;100498.13;;;16.73;76.84
63115;BME280;49208;50.874;6.466;2022-10-31T12:41:29;100484.84;;;16.70;78.08
63115;BME280;49208;50.874;6.466;2022-10-31T12:47:36;100470.38;;;16.73;77.47
63115;BME280;49208;50.874;6.466;2022-10-31T12:58:29;100482.41;;;16.82;78.05
63115;BME280;49208;50.874;6.466;2022-10-31T13:01:12;100478.75;;;16.83;77.89
63115;BME280;49208;50.874;6.466;2022-10-31T13:03:46;100487.81;;;16.82;77.75
63115;BME280;49208;50.874;6.466;2022-10-31T13:06:36;100485.25;;;16.78;78.58
63115;BME280;49208;50.874;6.466;2022-10-31T13:09:11;100483.81;;;16.73;77.66
63115;BME280;49208;50.874;6.466;2022-10-31T13:11:43;100477.94;;;16.66;78.49
63115;BME280;49208;50.874;6.466;2022-10-31T13:16:51;100455.94;;;16.60;78.73
63115;BME280;49208;50.874;6.466;2022-10-31T13:19:23;100441.72;;;16.57;79.23
63115;BME280;49208;50.874;6.466;2022-10-31T13:24:52;100443.34;;;16.46;80.00
63115;BME280;49208;50.874;6.466;2022-10-31T13:27:22;100439.13;;;16.42;80.24
63115;BME280;49208;50.874;6.466;2022-10-31T13:32:16;100434.38;;;16.31;80.65
63115;BME280;49208;50.874;6.466;2022-10-31T13:34:46;100423.75;;;16.29;81.28
63115;BME280;49208;50.874;6.466;2022-10-31T13:42:53;100398.97;;;16.24;80.88
63115;BME280;49208;50.874;6.466;2022-10-31T13:45:22;100384.66;;;16.24;81.15
63115;BME280;49208;50.874;6.466;2022-10-31T13:50:39;100364.91;;;16.25;80.82
63115;BME280;49208;50.874;6.466;2022-10-31T13:53:19;100356.84;;;16.25;81.02
63115;BME280;49208;50.874;6.466;2022-10-31T13:55:50;100347.84;;;16.26;80.73
63115;BME280;49208;50.874;6.466;2022-10-31T13:58:28;100348.69;;;16.26;81.02
63115;BME280;49208;50.874;6.466;2022-10-31T14:01:12;100343.41;;;16.25;80.94
63115;BME280;49208;50.874;6.466;2022-10-31T14:03:40;100336.31;;;16.24;80.41
63115;BME280;49208;50.874;6.466;2022-10-31T14:06:06;100331.03;;;16.22;80.96
63115;BME280;49208;50.874;6.466;2022-10-31T14:08:35;100330.19;;;16.22;80.70
63115;BME280;49208;50.874;6.466;2022-10-31T14:11:02;100325.88;;;16.19;80.81
63115;BME280;49208;50.874;6.466;2022-10-31T14:13:38;100328.56;;;16.19;80.58
63115;BME280;49208;50.874;6.466;2022-10-31T14:16:28;100327.69;;;16.19;80.23
63115;BME280;49208;50.874;6.466;2022-10-31T14:19:01;100320.59;;;16.17;80.43
63115;BME280;49208;50.874;6.466;2022-10-31T14:21:29;100317.81;;;16.19;80.45
63115;BME280;49208;50.874;6.466;2022-10-31T14:23:57;100301.50;;;16.22;80.03
63115;BME280;49208;50.874;6.466;2022-10-31T14:28:49;100306.50;;;16.28;79.08
63115;BME280;49208;50.874;6.466;2022-10-31T14:31:41;100318.97;;;16.29;79.69
63115;BME280;49208;50.874;6.466;2022-10-31T14:50:45;100290.97;;;16.48;77.61
63115;BME280;49208;50.874;6.466;2022-10-31T14:53:17;100281.09;;;16.48;77.55
63115;BME280;49208;50.874;6.466;2022-10-31T14:55:47;100279.34;;;16.47;77.94
63115;BME280;49208;50.874;6.466;2022-10-31T14:58:19;100276.56;;;16.49;76.82
63115;BME280;49208;50.874;6.466;2022-10-31T15:00:45;100275.72;;;16.48;76.96
63115;BME280;49208;50.874;6.466;2022-10-31T15:03:29;100265.72;;;16.50;76.45
63115;BME280;49208;50.874;6.466;2022-10-31T15:05:59;100255.94;;;16.49;76.36
63115;BME280;49208;50.874;6.466;2022-10-31T15:08:33;100257.97;;;16.46;76.66
63115;BME280;49208;50.874;6.466;2022-10-31T15:11:24;100246.63;;;16.41;76.61
63115;BME280;49208;50.874;6.466;2022-10-31T15:13:58;100251.34;;;16.37;77.01
63115;BME280;49208;50.874;6.466;2022-10-31T15:16:35;100247.88;;;16.35;77.23
63115;BME280;49208;50.874;6.466;2022-10-31T15:19:13;100240.03;;;16.32;77.15
63115;BME280;49208;50.874;6.466;2022-10-31T15:21:43;100228.44;;;16.31;77.45
63115;BME280;49208;50.874;6.466;2022-10-31T15:24:14;100224.00;;;16.30;77.97
63115;BME280;49208;50.874;6.466;2022-10-31T15:26:45;100224.28;;;16.26;77.39
63115;BME280;49208;50.874;6.466;2022-10-31T15:29:13;100222.56;;;16.25;77.92
63115;BME280;49208;50.874;6.466;2022-10-31T15:31:48;100217.38;;;16.22;78.78
63115;BME280;49208;50.874;6.466;2022-10-31T15:34:19;100223.63;;;16.22;78.01
63115;BME280;49208;50.874;6.466;2022-10-31T15:36:48;100206.84;;;16.19;78.61
63115;BME280;49208;50.874;6.466;2022-10-31T15:39:14;100205.31;;;16.14;78.56
63115;BME280;49208;50.874;6.466;2022-10-31T15:44:16;100208.66;;;16.04;79.22
63115;BME280;49208;50.874;6.466;2022-10-31T15:46:52;100206.34;;;15.98;79.68
63115;BME280;49208;50.874;6.466;2022-10-31T15:50:18;100199.56;;;15.92;79.80
63115;BME280;49208;50.874;6.466;2022-10-31T15:52:32;100214.97;;;15.88;79.95
63115;BME280;49208;50.874;6.466;2022-10-31T15:57:39;100203.94;;;15.79;80.52
63115;BME280;49208;50.874;6.466;2022-10-31T16:00:06;100203.44;;;15.72;80.80
63115;BME280;49208;50.874;6.466;2022-10-31T16:02:31;100193.13;;;15.64;81.08
63115;BME280;49208;50.874;6.466;2022-10-31T16:04:59;100192.47;;;15.61;81.25
63115;BME280;49208;50.874;6.466;2022-10-31T16:07:26;100191.81;;;15.57;81.34
63115;BME280;49208;50.874;6.466;2022-10-31T16:09:55;100185.06;;;15.50;81.65
63115;BME280;49208;50.874;6.466;2022-10-31T16:12:22;100187.25;;;15.43;81.79
63115;BME280;49208;50.874;6.466;2022-10-31T16:14:50;100184.84;;;15.39;82.17
63115;BME280;49208;50.874;6.466;2022-10-31T16:17:16;100192.28;;;15.33;82.43
63115;BME280;49208;50.874;6.466;2022-10-31T16:19:48;100185.41;;;15.29;82.73
63115;BME280;49208;50.874;6.466;2022-10-31T16:22:21;100191.81;;;15.27;82.84
63115;BME280;49208;50.874;6.466;2022-10-31T16:24:55;100184.91;;;15.23;83.24
63115;BME280;49208;50.874;6.466;2022-10-31T16:27:24;100192.34;;;15.18;83.69
63115;BME280;49208;50.874;6.466;2022-10-31T16:29:55;100194.28;;;15.15;83.74
63115;BME280;49208;50.874;6.466;2022-10-31T16:32:34;100202.66;;;15.09;84.08
63115;BME280;49208;50.874;6.466;2022-10-31T16:37:39;100202.06;;;15.04;84.38
63115;BME280;49208;50.874;6.466;2022-10-31T16:40:05;100205.72;;;15.03;84.47
63115;BME280;49208;50.874;6.466;2022-10-31T16:42:32;100199.72;;;14.98;84.51
63115;BME280;49208;50.874;6.466;2022-10-31T16:44:58;100202.59;;;14.95;84.79
63115;BME280;49208;50.874;6.466;2022-10-31T16:47:24;100214.38;;;14.92;84.87
63115;BME280;49208;50.874;6.466;2022-10-31T16:49:49;100211.06;;;14.87;84.97
63115;BME280;49208;50.874;6.466;2022-10-31T16:52:16;100215.94;;;14.81;84.91
63115;BME280;49208;50.874;6.466;2022-10-31T16:54:42;100219.81;;;14.75;85.47
63115;BME280;49208;50.874;6.466;2022-10-31T16:57:13;100225.28;;;14.73;85.74
63115;BME280;49208;50.874;6.466;2022-10-31T16:59:40;100214.13;;;14.65;85.70
63115;BME280;49208;50.874;6.466;2022-10-31T17:02:15;100218.78;;;14.62;86.19
63115;BME280;49208;50.874;6.466;2022-10-31T17:04:41;100212.00;;;14.54;86.47
63115;BME280;49208;50.874;6.466;2022-10-31T17:07:07;100207.94;;;14.47;86.84
63115;BME280;49208;50.874;6.466;2022-10-31T17:09:32;100202.22;;;14.38;87.27
63115;BME280;49208;50.874;6.466;2022-10-31T17:11:58;100207.06;;;14.31;87.60
63115;BME280;49208;50.874;6.466;2022-10-31T17:14:24;100202.13;;;14.23;88.25
63115;BME280;49208;50.874;6.466;2022-10-31T17:16:49;100208.69;;;14.18;88.23
63115;BME280;49208;50.874;6.466;2022-10-31T17:19:15;100201.91;;;14.10;88.58
63115;BME280;49208;50.874;6.466;2022-10-31T17:21:42;100211.13;;;14.05;89.26
63115;BME280;49208;50.874;6.466;2022-10-31T17:24:12;100200.00;;;13.97;89.80
63115;BME280;49208;50.874;6.466;2022-10-31T17:26:38;100203.00;;;13.90;90.33
63115;BME280;49208;50.874;6.466;2022-10-31T17:29:03;100196.09;;;13.86;90.72
63115;BME280;49208;50.874;6.466;2022-10-31T17:31:31;100197.28;;;13.81;90.65
63115;BME280;49208;50.874;6.466;2022-10-31T17:33:58;100193.97;;;13.75;90.99
63115;BME280;49208;50.874;6.466;2022-10-31T17:36:24;100195.19;;;13.70;91.22
63115;BME280;49208;50.874;6.466;2022-10-31T17:38:49;100193.69;;;13.64;91.27
63115;BME280;49208;50.874;6.466;2022-10-31T17:41:15;100192.25;;;13.57;91.48
63115;BME280;49208;50.874;6.466;2022-10-31T17:43:41;100183.63;;;13.52;91.85
63115;BME280;49208;50.874;6.466;2022-10-31T17:46:06;100183.06;;;13.45;91.92
63115;BME280;49208;50.874;6.466;2022-10-31T17:48:33;100178.84;;;13.41;92.18
63115;BME280;49208;50.874;6.466;2022-10-31T17:51:00;100184.50;;;13.35;92.54
63115;BME280;49208;50.874;6.466;2022-10-31T17:53:30;100186.53;;;13.30;92.59
63115;BME280;49208;50.874;6.466;2022-10-31T17:56:04;100189.34;;;13.27;92.56
63115;BME280;49208;50.874;6.466;2022-10-31T17:58:30;100184.84;;;13.27;92.54
63115;BME280;49208;50.874;6.466;2022-10-31T18:00:55;100190.34;;;13.24;92.29
63115;BME280;49208;50.874;6.466;2022-10-31T18:03:21;100180.47;;;13.26;92.10
63115;BME280;49208;50.874;6.466;2022-10-31T18:05:58;100181.38;;;13.25;91.53
63115;BME280;49208;50.874;6.466;2022-10-31T18:08:34;100177.00;;;13.24;91.17
63115;BME280;49208;50.874;6.466;2022-10-31T18:11:05;100174.16;;;13.27;90.56
63115;BME280;49208;50.874;6.466;2022-10-31T18:13:33;100174.22;;;13.26;90.66
63115;BME280;49208;50.874;6.466;2022-10-31T18:15:58;100171.66;;;13.24;90.36
63115;BME280;49208;50.874;6.466;2022-10-31T18:18:24;100169.84;;;13.25;90.23
63115;BME280;49208;50.874;6.466;2022-10-31T18:20:49;100170.69;;;13.25;89.89
63115;BME280;49208;50.874;6.466;2022-10-31T18:23:14;100164.41;;;13.26;89.65
63115;BME280;49208;50.874;6.466;2022-10-31T18:25:40;100161.75;;;13.26;89.82
63115;BME280;49208;50.874;6.466;2022-10-31T18:28:08;100157.25;;;13.27;89.05
63115;BME280;49208;50.874;6.466;2022-10-31T18:30:38;100157.31;;;13.25;89.27
63115;BME280;49208;50.874;6.466;2022-10-31T18:33:03;100154.81;;;13.22;89.37
63115;BME280;49208;50.874;6.466;2022-10-31T18:35:29;100153.16;;;13.20;89.37
63115;BME280;49208;50.874;6.466;2022-10-31T18:37:54;100157.81;;;13.16;89.04
63115;BME280;49208;50.874;6.466;2022-10-31T18:40:19;100154.34;;;13.14;88.99
63115;BME280;49208;50.874;6.466;2022-10-31T18:42:45;100148.34;;;13.09;89.25
63115;BME280;49208;50.874;6.466;2022-10-31T18:45:10;100146.78;;;13.05;89.21
63115;BME280;49208;50.874;6.466;2022-10-31T18:47:36;100147.81;;;13.02;88.82
63115;BME280;49208;50.874;6.466;2022-10-31T18:50:01;100141.75;;;12.99;89.24
63115;BME280;49208;50.874;6.466;2022-10-31T18:52:27;100138.47;;;12.93;89.05
63115;BME280;49208;50.874;6.466;2022-10-31T18:54:52;100137.81;;;12.88;89.38
63115;BME280;49208;50.874;6.466;2022-10-31T18:57:18;100146.00;;;12.85;89.43
63115;BME280;49208;50.874;6.466;2022-10-31T18:59:43;100147.94;;;12.82;89.61
63115;BME280;49208;50.874;6.466;2022-10-31T19:02:11;100130.88;;;12.84;89.60
63115;BME280;49208;50.874;6.466;2022-10-31T19:04:39;100138.22;;;12.81;89.85
63115;BME280;49208;50.874;6.466;2022-10-31T19:07:04;100134.66;;;12.80;89.88
63115;BME280;49208;50.874;6.466;2022-10-31T19:09:32;100130.09;;;12.82;90.10
63115;BME280;49208;50.874;6.466;2022-10-31T19:11:58;100132.72;;;12.84;89.83
63115;BME280;49208;50.874;6.466;2022-10-31T19:14:23;100133.56;;;12.84;89.45
63115;BME280;49208;50.874;6.466;2022-10-31T19:16:49;100116.75;;;12.82;89.31
63115;BME280;49208;50.874;6.466;2022-10-31T19:19:14;100123.97;;;12.80;89.25
63115;BME280;49208;50.874;6.466;2022-10-31T19:21:40;100124.06;;;12.79;88.87
63115;BME280;49208;50.874;6.466;2022-10-31T19:24:05;100118.00;;;12.75;89.28
63115;BME280;49208;50.874;6.466;2022-10-31T19:26:32;100112.81;;;12.72;88.58
63115;BME280;49208;50.874;6.466;2022-10-31T19:28:58;100111.16;;;12.69;89.01
63115;BME280;49208;50.874;6.466;2022-10-31T19:31:23;100097.97;;;12.66;88.88
63115;BME280;49208;50.874;6.466;2022-10-31T19:33:49;100095.44;;;12.63;88.87
63115;BME280;49208;50.874;6.466;2022-10-31T19:36:16;100090.28;;;12.60;89.02
63115;BME280;49208;50.874;6.466;2022-10-31T19:38:44;100087.66;;;12.59;88.94
63115;BME280;49208;50.874;6.466;2022-10-31T19:41:13;100085.00;;;12.59;88.47
63115;BME280;49208;50.874;6.466;2022-10-31T19:43:39;100082.41;;;12.57;88.32
63115;BME280;49208;50.874;6.466;2022-10-31T19:46:06;100084.28;;;12.55;88.39
63115;BME280;49208;50.874;6.466;2022-10-31T19:48:35;100089.72;;;12.53;87.90
63115;BME280;49208;50.874;6.466;2022-10-31T19:51:03;100082.41;;;12.57;88.02
63115;BME280;49208;50.874;6.466;2022-10-31T19:53:30;100077.16;;;12.56;87.73
63115;BME280;49208;50.874;6.466;2022-10-31T19:55:56;100074.19;;;12.62;87.48
63115;BME280;49208;50.874;6.466;2022-10-31T19:58:21;100079.34;;;12.65;87.08
63115;BME280;49208;50.874;6.466;2022-10-31T20:00:46;100075.66;;;12.67;86.85
63115;BME280;49208;50.874;6.466;2022-10-31T20:03:12;100075.75;;;12.66;86.92
63115;BME280;49208;50.874;6.466;2022-10-31T20:05:41;100079.34;;;12.65;86.92
63115;BME280;49208;50.874;6.466;2022-10-31T20:08:17;100069.69;;;12.62;86.97
63115;BME280;49208;50.874;6.466;2022-10-31T20:10:54;100065.38;;;12.60;86.96
63115;BME280;49208;50.874;6.466;2022-10-31T20:13:20;100063.56;;;12.60;87.18
63115;BME280;49208;50.874;6.466;2022-10-31T20:15:45;100068.06;;;12.60;87.39
63115;BME280;49208;50.874;6.466;2022-10-31T20:18:11;100053.03;;;12.57;87.82
63115;BME280;49208;50.874;6.466;2022-10-31T20:20:36;100053.25;;;12.52;87.82
63115;BME280;49208;50.874;6.466;2022-10-31T20:23:01;100051.69;;;12.48;88.56
63115;BME280;49208;50.874;6.466;2022-10-31T20:25:27;100042.03;;;12.46;88.62
63115;BME280;49208;50.874;6.466;2022-10-31T20:27:52;100050.09;;;12.44;89.00
63115;BME280;49208;50.874;6.466;2022-10-31T20:30:18;100045.72;;;12.43;88.97
63115;BME280;49208;50.874;6.466;2022-10-31T20:32:43;100038.50;;;12.45;88.90
63115;BME280;49208;50.874;6.466;2022-10-31T20:35:09;100045.41;;;12.49;88.96
63115;BME280;49208;50.874;6.466;2022-10-31T20:37:34;100039.19;;;12.49;88.86
63115;BME280;49208;50.874;6.466;2022-10-31T20:40:00;100039.13;;;12.50;89.10
63115;BME280;49208;50.874;6.466;2022-10-31T20:42:26;100039.19;;;12.49;89.20
63115;BME280;49208;50.874;6.466;2022-10-31T20:44:52;100036.53;;;12.49;89.66
63115;BME280;49208;50.874;6.466;2022-10-31T20:47:17;100040.09;;;12.49;89.19